Time;durP1;ratioP1;P1;durP2;ratioP2;P2;SDS_P1;SDS_P2;PMS_P1;PMS_P2;Temp;Humidity;BMP_temperature;BMP_pressure;BME280_temperature;BME280_humidity;BME280_pressure;Samples;Min_cycle;Max_cycle;Signal;HPM_P1;HPM_P2
2022/04/10 00:01:35;;;;;;;4.00;3.60;;;;;;;;;;5054061;28;20448;-50
2022/04/10 00:04:01;;;;;;;3.23;3.13;;;;;;;;;;5053976;28;20410;-56
2022/04/10 00:06:27;;;;;;;4.23;3.83;;;;;;;;;;5053689;28;20557;-50
2022/04/10 00:08:53;;;;;;;4.37;3.77;;;;;;;;;;5053880;28;20403;-49
2022/04/10 00:11:19;;;;;;;3.70;3.50;;;;;;;;;;5052785;28;20408;-50
2022/04/10 00:13:45;;;;;;;8.83;4.53;;;;;;;;;;5053882;28;20423;-49
2022/04/10 00:16:13;;;;;;;5.87;3.97;;;;;;;;;;5053640;28;20973;-50
2022/04/10 00:18:39;;;;;;;3.67;3.47;;;;;;;;;;5053516;28;20506;-50
2022/04/10 00:21:05;;;;;;;3.93;3.73;;;;;;;;;;5053381;28;20509;-51
2022/04/10 00:23:32;;;;;;;4.10;3.80;;;;;;;;;;5053598;28;20942;-50
2022/04/10 00:25:58;;;;;;;5.23;4.27;;;;;;;;;;5053376;28;20471;-49
2022/04/10 00:28:24;;;;;;;3.87;3.67;;;;;;;;;;5053493;28;20408;-51
2022/04/10 00:30:50;;;;;;;3.90;3.63;;;;;;;;;;5053490;28;20416;-49
2022/04/10 00:33:16;;;;;;;4.00;3.57;;;;;;;;;;5053596;28;20414;-49
2022/04/10 00:35:42;;;;;;;3.57;3.47;;;;;;;;;;5053397;28;20900;-50
2022/04/10 00:38:08;;;;;;;3.13;2.93;;;;;;;;;;5053371;28;20508;-50
2022/04/10 00:40:34;;;;;;;4.10;3.87;;;;;;;;;;5053313;28;20507;-49
2022/04/10 00:43:00;;;;;;;3.83;3.53;;;;;;;;;;5053546;28;20407;-50
2022/04/10 00:45:26;;;;;;;4.20;3.90;;;;;;;;;;5053075;28;20466;-52
2022/04/10 00:47:52;;;;;;;3.57;3.23;;;;;;;;;;5051818;28;20422;-49
2022/04/10 00:50:19;;;;;;;3.50;3.20;;;;;;;;;;5053237;28;20469;-51
2022/04/10 00:52:47;;;;;;;4.47;3.80;;;;;;;;;;5053125;28;20884;-51
2022/04/10 00:55:13;;;;;;;8.53;4.73;;;;;;;;;;5051769;28;20813;-50
2022/04/10 00:57:39;;;;;;;8.57;4.20;;;;;;;;;;5052839;28;20408;-50
2022/04/10 01:00:08;;;;;;;8.13;3.60;;;;;;;;;;5052917;28;20439;-49
2022/04/10 01:02:34;;;;;;;4.77;4.20;;;;;;;;;;5051068;28;20451;-52
2022/04/10 01:05:00;;;;;;;4.77;4.30;;;;;;;;;;5052712;28;20458;-49
2022/04/10 01:07:28;;;;;;;5.03;4.10;;;;;;;;;;5052929;28;20480;-49
2022/04/10 01:09:54;;;;;;;3.80;3.50;;;;;;;;;;5052809;28;20408;-51
2022/04/10 01:12:20;;;;;;;4.37;3.77;;;;;;;;;;5052744;28;20451;-50
2022/04/10 01:14:46;;;;;;;5.40;3.83;;;;;;;;;;5052918;28;20408;-50
2022/04/10 01:17:16;;;;;;;7.37;4.20;;;;;;;;;;5052699;28;20418;-51
2022/04/10 01:19:42;;;;;;;4.33;4.00;;;;;;;;;;5052540;28;20451;-50
2022/04/10 01:22:09;;;;;;;5.43;3.60;;;;;;;;;;5052641;28;20431;-51
2022/04/10 01:24:39;;;;;;;6.10;4.30;;;;;;;;;;5052653;28;20407;-49
2022/04/10 01:27:06;;;;;;;4.97;4.60;;;;;;;;;;5052695;28;20422;-50
2022/04/10 01:29:32;;;;;;;5.87;4.80;;;;;;;;;;5052671;28;20900;-50
2022/04/10 01:32:01;;;;;;;8.63;5.33;;;;;;;;;;5052885;28;20419;-49
2022/04/10 01:34:27;;;;;;;6.30;5.17;;;;;;;;;;5052723;28;20760;-49
2022/04/10 01:36:53;;;;;;;5.87;5.27;;;;;;;;;;5052769;28;20443;-49
2022/04/10 01:39:20;;;;;;;9.13;4.80;;;;;;;;;;5052602;28;20466;-49
2022/04/10 01:41:46;;;;;;;6.53;4.57;;;;;;;;;;5052961;28;20469;-50
2022/04/10 01:44:12;;;;;;;4.00;3.80;;;;;;;;;;5052527;28;20815;-50
2022/04/10 01:46:38;;;;;;;6.57;5.07;;;;;;;;;;5052568;28;20482;-51
2022/04/10 01:49:05;;;;;;;5.43;4.93;;;;;;;;;;5052599;28;20742;-50
2022/04/10 01:51:32;;;;;;;4.57;4.10;;;;;;;;;;5052473;28;20417;-50
2022/04/10 01:53:58;;;;;;;9.87;4.43;;;;;;;;;;5052527;28;20399;-54
2022/04/10 01:56:24;;;;;;;4.07;3.87;;;;;;;;;;5052308;28;20419;-50
2022/04/10 01:58:54;;;;;;;3.70;3.40;;;;;;;;;;5052373;28;20404;-49
2022/04/10 02:01:24;;;;;;;4.87;4.37;;;;;;;;;;5052399;28;20807;-50
2022/04/10 02:03:50;;;;;;;4.73;4.20;;;;;;;;;;5052359;28;20768;-52
2022/04/10 02:06:17;;;;;;;4.50;4.23;;;;;;;;;;5052393;28;20620;-50
2022/04/10 02:08:46;;;;;;;9.93;4.90;;;;;;;;;;5052204;28;20404;-55
2022/04/10 02:11:14;;;;;;;11.60;4.73;;;;;;;;;;5052130;28;20411;-50
2022/04/10 02:13:40;;;;;;;4.77;4.37;;;;;;;;;;5052169;28;20419;-52
2022/04/10 02:16:08;;;;;;;6.20;4.37;;;;;;;;;;5052068;28;20411;-51
2022/04/10 02:18:34;;;;;;;8.00;4.93;;;;;;;;;;5052010;28;20475;-56
2022/04/10 02:21:00;;;;;;;4.50;4.07;;;;;;;;;;5050481;28;20470;-53
2022/04/10 02:23:26;;;;;;;5.53;4.37;;;;;;;;;;5052070;28;20404;-54
2022/04/10 02:25:52;;;;;;;5.00;4.50;;;;;;;;;;5051983;28;20463;-48
2022/04/10 02:28:18;;;;;;;7.33;4.17;;;;;;;;;;5052089;28;20399;-51
2022/04/10 02:30:44;;;;;;;11.50;5.00;;;;;;;;;;5050970;28;20556;-51
2022/04/10 02:33:10;;;;;;;7.63;5.13;;;;;;;;;;5050756;28;20863;-51
2022/04/10 02:35:36;;;;;;;8.27;4.40;;;;;;;;;;5054204;28;20861;-50
2022/04/10 02:38:02;;;;;;;5.33;4.60;;;;;;;;;;5055465;28;20443;-53
2022/04/10 02:40:28;;;;;;;8.00;5.27;;;;;;;;;;5055481;28;20415;-50
2022/04/10 02:42:54;;;;;;;5.60;4.93;;;;;;;;;;5055591;28;20410;-52
2022/04/10 02:45:20;;;;;;;6.43;4.80;;;;;;;;;;5055223;28;20486;-49
2022/04/10 02:47:46;;;;;;;6.97;4.83;;;;;;;;;;5055513;28;20749;-50
2022/04/10 02:50:13;;;;;;;13.47;4.87;;;;;;;;;;5055263;28;20495;-50
2022/04/10 02:52:40;;;;;;;5.00;4.60;;;;;;;;;;5055230;28;20938;-50
2022/04/10 02:55:06;;;;;;;8.37;5.53;;;;;;;;;;5055416;28;20406;-51
2022/04/10 02:57:32;;;;;;;4.83;4.33;;;;;;;;;;5055123;28;20486;-50
2022/04/10 03:00:01;;;;;;;5.70;5.20;;;;;;;;;;5055158;28;20870;-51
2022/04/10 03:02:27;;;;;;;9.73;5.20;;;;;;;;;;5055117;28;20410;-48
2022/04/10 03:04:53;;;;;;;5.77;5.20;;;;;;;;;;5054920;28;20391;-52
2022/04/10 03:07:22;;;;;;;8.60;5.20;;;;;;;;;;5054948;28;20483;-51
2022/04/10 03:09:48;;;;;;;10.20;5.40;;;;;;;;;;5055166;28;20408;-50
2022/04/10 03:12:14;;;;;;;6.13;5.53;;;;;;;;;;5053733;28;20420;-49
2022/04/10 03:14:41;;;;;;;7.50;5.03;;;;;;;;;;5054805;28;20483;-51
2022/04/10 03:17:07;;;;;;;7.97;5.40;;;;;;;;;;5054909;28;20435;-51
2022/04/10 03:19:33;;;;;;;5.47;4.90;;;;;;;;;;5054525;28;20501;-51
2022/04/10 03:21:59;;;;;;;6.90;5.00;;;;;;;;;;5054747;28;20772;-49
2022/04/10 03:24:25;;;;;;;5.10;4.60;;;;;;;;;;5054740;28;20419;-49
2022/04/10 03:26:51;;;;;;;6.60;4.97;;;;;;;;;;5054476;28;20467;-49
2022/04/10 03:29:17;;;;;;;6.50;4.90;;;;;;;;;;5054764;28;20412;-50
2022/04/10 03:31:43;;;;;;;8.23;4.67;;;;;;;;;;5054503;28;20936;-50
2022/04/10 03:34:09;;;;;;;6.77;4.77;;;;;;;;;;5054404;28;20400;-50
2022/04/10 03:36:35;;;;;;;6.30;4.80;;;;;;;;;;5054480;28;20448;-53
2022/04/10 03:39:01;;;;;;;7.43;5.10;;;;;;;;;;5053156;28;20447;-52
2022/04/10 03:41:27;;;;;;;6.83;5.13;;;;;;;;;;5052984;28;20423;-51
2022/04/10 03:43:53;;;;;;;8.43;5.30;;;;;;;;;;5054293;28;20399;-52
2022/04/10 03:46:19;;;;;;;6.43;5.20;;;;;;;;;;5053954;28;20467;-52
2022/04/10 03:48:45;;;;;;;5.53;5.03;;;;;;;;;;5053102;28;20506;-51
2022/04/10 03:51:11;;;;;;;10.80;5.17;;;;;;;;;;5054194;28;20474;-54
2022/04/10 03:53:38;;;;;;;6.43;4.63;;;;;;;;;;5054084;28;20420;-50
2022/04/10 03:56:05;;;;;;;7.80;5.20;;;;;;;;;;5053975;28;20427;-51
2022/04/10 03:58:31;;;;;;;9.73;4.90;;;;;;;;;;5054006;28;20430;-51
2022/04/10 04:00:57;;;;;;;5.00;4.60;;;;;;;;;;5053960;28;20753;-51
2022/04/10 04:03:23;;;;;;;8.20;5.00;;;;;;;;;;5053757;28;20409;-50
2022/04/10 04:05:49;;;;;;;5.63;4.87;;;;;;;;;;5053792;28;20463;-51
2022/04/10 04:08:16;;;;;;;5.83;4.50;;;;;;;;;;5053943;28;20396;-49
2022/04/10 04:10:42;;;;;;;14.00;5.10;;;;;;;;;;5053819;28;20833;-51
2022/04/10 04:13:08;;;;;;;5.07;4.70;;;;;;;;;;5053796;28;20497;-50
2022/04/10 04:15:34;;;;;;;8.27;5.00;;;;;;;;;;5053683;28;20416;-49
2022/04/10 04:18:00;;;;;;;6.67;5.20;;;;;;;;;;5053971;28;20404;-54
2022/04/10 04:20:26;;;;;;;10.10;5.50;;;;;;;;;;5053367;28;20964;-51
2022/04/10 04:22:54;;;;;;;8.90;5.10;;;;;;;;;;5053603;28;20415;-49
2022/04/10 04:25:22;;;;;;;8.53;5.23;;;;;;;;;;5053622;28;20463;-51
2022/04/10 04:27:48;;;;;;;6.10;5.17;;;;;;;;;;5053514;28;20426;-50
2022/04/10 04:30:15;;;;;;;8.20;5.17;;;;;;;;;;5053615;28;20497;-52
2022/04/10 04:32:41;;;;;;;6.00;4.77;;;;;;;;;;5053311;28;20415;-51
2022/04/10 04:35:07;;;;;;;9.83;5.23;;;;;;;;;;5051948;28;20403;-53
2022/04/10 04:37:40;;;;;;;10.30;5.90;;;;;;;;;;5053336;28;20447;-54
2022/04/10 04:40:06;;;;;;;9.07;5.13;;;;;;;;;;5051939;28;20408;-51
2022/04/10 04:42:32;;;;;;;7.10;5.30;;;;;;;;;;5053144;28;20494;-53
2022/04/10 04:44:58;;;;;;;5.87;4.70;;;;;;;;;;5052950;28;20441;-51
2022/04/10 04:47:24;;;;;;;7.53;5.60;;;;;;;;;;5053291;28;20443;-51
2022/04/10 04:49:50;;;;;;;6.17;5.10;;;;;;;;;;5053080;28;20404;-49
2022/04/10 04:52:17;;;;;;;8.20;5.07;;;;;;;;;;5053262;28;20439;-55
2022/04/10 04:54:43;;;;;;;9.60;5.87;;;;;;;;;;5052951;28;20439;-50
2022/04/10 04:57:09;;;;;;;10.37;6.93;;;;;;;;;;5052775;28;20750;-49
2022/04/10 04:59:35;;;;;;;8.70;5.50;;;;;;;;;;5052996;28;20407;-51
2022/04/10 05:02:01;;;;;;;11.53;5.80;;;;;;;;;;5052777;28;20920;-52
2022/04/10 05:04:27;;;;;;;14.13;6.10;;;;;;;;;;5052846;28;20482;-49
2022/04/10 05:06:53;;;;;;;6.43;4.90;;;;;;;;;;5052715;28;20471;-51
2022/04/10 05:09:19;;;;;;;8.40;5.53;;;;;;;;;;5052926;28;20435;-51
2022/04/10 05:11:45;;;;;;;11.40;5.87;;;;;;;;;;5052986;28;20450;-50
2022/04/10 05:14:11;;;;;;;11.47;6.30;;;;;;;;;;5052616;28;20400;-50
2022/04/10 05:16:39;;;;;;;9.03;7.03;;;;;;;;;;5052654;28;20925;-50
2022/04/10 05:19:05;;;;;;;8.03;5.40;;;;;;;;;;5052461;28;20458;-51
2022/04/10 05:21:31;;;;;;;8.70;6.00;;;;;;;;;;5052612;28;20457;-55
2022/04/10 05:24:00;;;;;;;7.87;6.07;;;;;;;;;;5052593;28;21018;-50
2022/04/10 05:26:26;;;;;;;8.30;6.07;;;;;;;;;;5052506;28;20467;-51
2022/04/10 05:28:52;;;;;;;8.80;5.53;;;;;;;;;;5052739;28;20730;-50
2022/04/10 05:31:18;;;;;;;12.20;6.00;;;;;;;;;;5052629;28;20414;-50
2022/04/10 05:33:44;;;;;;;8.77;5.47;;;;;;;;;;5052886;28;20453;-51
2022/04/10 05:36:10;;;;;;;6.87;4.20;;;;;;;;;;5052457;28;20900;-52
2022/04/10 05:38:36;;;;;;;6.80;5.63;;;;;;;;;;5052567;28;20503;-49
2022/04/10 05:41:02;;;;;;;6.10;5.23;;;;;;;;;;5052480;28;20775;-58
2022/04/10 05:43:30;;;;;;;5.73;5.20;;;;;;;;;;5052419;28;20439;-50
2022/04/10 05:45:56;;;;;;;6.10;5.13;;;;;;;;;;5052260;28;20467;-48
2022/04/10 05:48:22;;;;;;;5.70;5.00;;;;;;;;;;5052368;28;20403;-53
2022/04/10 05:50:48;;;;;;;6.27;5.10;;;;;;;;;;5052416;28;20818;-51
2022/04/10 05:53:14;;;;;;;5.10;4.70;;;;;;;;;;5052425;28;20981;-50
2022/04/10 05:55:40;;;;;;;7.00;5.60;;;;;;;;;;5052263;28;20408;-51
2022/04/10 05:58:06;;;;;;;5.13;4.73;;;;;;;;;;5052225;28;20407;-49
2022/04/10 06:00:32;;;;;;;10.60;6.20;;;;;;;;;;5052280;28;20403;-51
2022/04/10 06:03:05;;;;;;;11.93;5.47;;;;;;;;;;5051000;28;20446;-53
2022/04/10 06:05:31;;;;;;;13.60;6.53;;;;;;;;;;5052009;28;20462;-49
2022/04/10 06:07:57;;;;;;;4.60;4.30;;;;;;;;;;5052191;28;20424;-51
2022/04/10 06:10:23;;;;;;;8.00;4.70;;;;;;;;;;5052807;28;20453;-49
2022/04/10 06:12:49;;;;;;;9.20;6.07;;;;;;;;;;5055905;28;21014;-51
2022/04/10 06:15:25;;;;;;;5.00;4.60;;;;;;;;;;5056173;28;20415;-49
2022/04/10 06:17:51;;;;;;;9.13;6.07;;;;;;;;;;5055845;28;20406;-51
2022/04/10 06:20:17;;;;;;;4.97;4.47;;;;;;;;;;5055820;28;20463;-50
2022/04/10 06:22:43;;;;;;;9.03;6.00;;;;;;;;;;5055832;28;20414;-52
2022/04/10 06:25:09;;;;;;;5.87;5.23;;;;;;;;;;5055584;28;20454;-51
2022/04/10 06:27:35;;;;;;;7.73;5.67;;;;;;;;;;5055704;28;20411;-51
2022/04/10 06:30:07;;;;;;;5.37;4.87;;;;;;;;;;5055675;28;20483;-49
2022/04/10 06:32:33;;;;;;;5.83;5.23;;;;;;;;;;5055716;28;20420;-56
2022/04/10 06:35:03;;;;;;;13.93;5.67;;;;;;;;;;5055695;28;20438;-50
2022/04/10 06:37:28;;;;;;;9.10;5.07;;;;;;;;;;5055525;28;20434;-50
2022/04/10 06:39:54;;;;;;;5.70;5.07;;;;;;;;;;5055586;28;20411;-55
2022/04/10 06:42:20;;;;;;;5.93;5.40;;;;;;;;;;5054165;28;20419;-54
2022/04/10 06:44:50;;;;;;;10.90;5.50;;;;;;;;;;5055561;28;20473;-54
2022/04/10 06:47:16;;;;;;;4.13;3.80;;;;;;;;;;5054331;28;20463;-57
2022/04/10 06:49:42;;;;;;;7.70;4.83;;;;;;;;;;5055258;28;20738;-51
2022/04/10 06:52:11;;;;;;;5.00;4.60;;;;;;;;;;5055250;28;20978;-52
2022/04/10 06:54:37;;;;;;;10.80;4.30;;;;;;;;;;5053970;28;20908;-52
2022/04/10 06:57:03;;;;;;;10.43;5.13;;;;;;;;;;5053853;28;20920;-52
2022/04/10 06:59:29;;;;;;;5.33;4.73;;;;;;;;;;5055095;28;20942;-50
2022/04/10 07:01:55;;;;;;;21.93;5.40;;;;;;;;;;5055019;28;20440;-50
2022/04/10 07:04:21;;;;;;;11.17;5.37;;;;;;;;;;5055115;28;20435;-51
2022/04/10 07:06:47;;;;;;;8.70;4.57;;;;;;;;;;5054980;28;20459;-55
2022/04/10 07:09:16;;;;;;;8.93;4.70;;;;;;;;;;5055085;28;20400;-50
2022/04/10 07:11:43;;;;;;;4.17;3.90;;;;;;;;;;5054935;28;20408;-49
2022/04/10 07:14:09;;;;;;;4.63;4.17;;;;;;;;;;5054868;28;20892;-52
2022/04/10 07:16:35;;;;;;;4.87;4.43;;;;;;;;;;5055033;28;20507;-52
2022/04/10 07:19:01;;;;;;;7.60;3.70;;;;;;;;;;5054570;28;20396;-49
2022/04/10 07:24:12;;;;;;;6.37;4.90;;;;;;;;;;5054716;28;20512;-52
2022/04/10 07:26:38;;;;;;;4.77;4.27;;;;;;;;;;5053429;28;20471;-49
2022/04/10 07:29:04;;;;;;;16.73;5.90;;;;;;;;;;5054812;28;20404;-50
2022/04/10 07:31:30;;;;;;;7.00;4.30;;;;;;;;;;5054582;28;20446;-50
2022/04/10 07:33:56;;;;;;;6.80;5.13;;;;;;;;;;5053436;28;20534;-52
2022/04/10 07:36:22;;;;;;;4.40;4.00;;;;;;;;;;5054668;28;20827;-57
2022/04/10 07:38:48;;;;;;;3.50;3.40;;;;;;;;;;5054708;28;20407;-50
2022/04/10 07:41:14;;;;;;;3.83;3.63;;;;;;;;;;5054494;28;20522;-52
2022/04/10 07:43:40;;;;;;;10.83;4.10;;;;;;;;;;5054321;28;20439;-54
2022/04/10 07:48:50;;;;;;;6.23;4.57;;;;;;;;;;5054523;28;20480;-51
2022/04/10 07:51:16;;;;;;;4.17;3.77;;;;;;;;;;5054270;28;20443;-53
2022/04/10 07:53:42;;;;;;;6.60;4.67;;;;;;;;;;5052979;28;20451;-48
2022/04/10 07:56:09;;;;;;;11.20;4.67;;;;;;;;;;5054132;28;20412;-52
2022/04/10 07:58:37;;;;;;;4.50;4.10;;;;;;;;;;5054175;28;20408;-56
2022/04/10 08:01:03;;;;;;;10.47;4.33;;;;;;;;;;5054256;28;20461;-52
2022/04/10 08:03:29;;;;;;;6.33;4.83;;;;;;;;;;5054068;28;20452;-52
2022/04/10 08:05:55;;;;;;;5.20;4.67;;;;;;;;;;5053808;28;20545;-52
2022/04/10 08:08:21;;;;;;;6.70;4.87;;;;;;;;;;5053918;28;20755;-54
2022/04/10 08:10:47;;;;;;;10.63;4.10;;;;;;;;;;5054156;28;20483;-54
2022/04/10 08:13:13;;;;;;;9.53;4.23;;;;;;;;;;5053737;28;20416;-53
2022/04/10 08:15:42;;;;;;;5.67;4.53;;;;;;;;;;5053743;28;20758;-55
2022/04/10 08:18:08;;;;;;;17.17;4.90;;;;;;;;;;5053978;28;20824;-55
2022/04/10 08:20:35;;;;;;;5.53;4.00;;;;;;;;;;5052195;28;20467;-50
2022/04/10 08:23:01;;;;;;;6.03;4.03;;;;;;;;;;5053580;28;20412;-52
2022/04/10 08:25:28;;;;;;;11.90;5.10;;;;;;;;;;5053407;28;20455;-50
2022/04/10 08:27:55;;;;;;;6.93;3.93;;;;;;;;;;5053547;28;20451;-52
2022/04/10 08:30:22;;;;;;;16.50;5.60;;;;;;;;;;5052459;28;20467;-50
2022/04/10 08:32:48;;;;;;;4.60;4.20;;;;;;;;;;5052732;28;20843;-51
2022/04/10 08:35:16;;;;;;;11.00;5.10;;;;;;;;;;5052285;28;20753;-50
2022/04/10 08:37:45;;;;;;;8.07;4.50;;;;;;;;;;5053302;28;20479;-51
2022/04/10 08:40:11;;;;;;;6.60;4.10;;;;;;;;;;5053438;28;20403;-53
2022/04/10 08:42:38;;;;;;;6.20;4.20;;;;;;;;;;5053223;28;20942;-50
2022/04/10 08:45:04;;;;;;;4.23;3.70;;;;;;;;;;5053126;28;20412;-53
2022/04/10 08:47:30;;;;;;;9.77;5.80;;;;;;;;;;5051794;28;20509;-51
2022/04/10 08:49:57;;;;;;;9.03;4.53;;;;;;;;;;5053026;28;20503;-53
2022/04/10 08:52:26;;;;;;;14.83;5.17;;;;;;;;;;5051846;28;20423;-57
2022/04/10 08:54:52;;;;;;;6.03;4.87;;;;;;;;;;5053019;28;20900;-52
2022/04/10 08:57:18;;;;;;;3.70;3.50;;;;;;;;;;5053166;28;20424;-51
2022/04/10 08:59:44;;;;;;;10.03;4.37;;;;;;;;;;5052870;28;20545;-51
2022/04/10 09:02:11;;;;;;;4.73;4.30;;;;;;;;;;5051548;28;20432;-53
2022/04/10 09:04:40;;;;;;;6.33;3.67;;;;;;;;;;5052905;28;20757;-52
2022/04/10 09:07:08;;;;;;;13.70;5.07;;;;;;;;;;5052676;28;20552;-55
2022/04/10 09:09:37;;;;;;;5.83;4.70;;;;;;;;;;5053164;28;20422;-55
2022/04/10 09:12:04;;;;;;;17.70;4.70;;;;;;;;;;5052701;28;20412;-50
2022/04/10 09:14:40;;;;;;;8.53;5.57;;;;;;;;;;5052789;28;20412;-51
2022/04/10 09:17:10;;;;;;;10.97;5.63;;;;;;;;;;5052633;28;20795;-51
2022/04/10 09:19:41;;;;;;;7.27;4.80;;;;;;;;;;5052411;28;20455;-53
2022/04/10 09:22:20;;;;;;;8.97;4.60;;;;;;;;;;5052822;28;20415;-51
2022/04/10 09:25:01;;;;;;;7.87;4.67;;;;;;;;;;5051850;28;20419;-51
2022/04/10 09:27:31;;;;;;;12.70;4.73;;;;;;;;;;5052532;28;20557;-49
2022/04/10 09:29:58;;;;;;;10.00;4.50;;;;;;;;;;5052548;28;20458;-51
2022/04/10 09:32:36;;;;;;;5.37;4.30;;;;;;;;;;5052470;28;20419;-51
2022/04/10 09:35:02;;;;;;;9.87;5.30;;;;;;;;;;5052457;28;20687;-49
2022/04/10 09:37:30;;;;;;;4.37;3.90;;;;;;;;;;5051499;28;20776;-50
2022/04/10 09:40:16;;;;;;;8.93;4.47;;;;;;;;;;5052388;28;20507;-51
2022/04/10 09:42:42;;;;;;;6.10;4.67;;;;;;;;;;5052379;28;20418;-50
2022/04/10 09:45:26;;;;;;;11.47;5.00;;;;;;;;;;5054331;28;20466;-51
2022/04/10 09:47:52;;;;;;;5.80;5.13;;;;;;;;;;5055091;28;20458;-49
2022/04/10 09:50:18;;;;;;;5.37;4.87;;;;;;;;;;5056452;28;21026;-56
2022/04/10 09:52:45;;;;;;;7.97;5.07;;;;;;;;;;5056396;28;20407;-54
2022/04/10 09:55:31;;;;;;;7.30;4.40;;;;;;;;;;5056648;28;20422;-50
2022/04/10 09:58:01;;;;;;;8.87;4.40;;;;;;;;;;5056204;28;20418;-50
2022/04/10 10:00:28;;;;;;;4.43;3.90;;;;;;;;;;5056223;28;20400;-51
2022/04/10 10:02:54;;;;;;;8.40;4.47;;;;;;;;;;5056311;28;20439;-53
2022/04/10 10:05:23;;;;;;;5.80;4.90;;;;;;;;;;5056124;28;20454;-53
2022/04/10 10:07:50;;;;;;;7.93;5.20;;;;;;;;;;5054950;28;20515;-53
2022/04/10 10:10:20;;;;;;;5.20;4.70;;;;;;;;;;5056132;28;20457;-52
2022/04/10 10:12:46;;;;;;;6.77;4.37;;;;;;;;;;5056118;28;20416;-50
2022/04/10 10:15:13;;;;;;;6.67;4.30;;;;;;;;;;5056070;28;20403;-51
2022/04/10 10:17:39;;;;;;;7.80;4.70;;;;;;;;;;5056075;28;20412;-50
2022/04/10 10:20:06;;;;;;;5.17;4.43;;;;;;;;;;5056185;28;20823;-53
2022/04/10 10:22:32;;;;;;;12.13;4.87;;;;;;;;;;5054692;28;20427;-57
2022/04/10 10:25:00;;;;;;;6.10;4.63;;;;;;;;;;5055829;28;20768;-54
2022/04/10 10:27:45;;;;;;;10.27;4.77;;;;;;;;;;5055847;28;20426;-52
2022/04/10 10:30:20;;;;;;;5.13;4.67;;;;;;;;;;5055978;28;20446;-53
2022/04/10 10:32:55;;;;;;;6.13;3.80;;;;;;;;;;5054624;28;20506;-50
2022/04/10 10:35:34;;;;;;;3.93;3.53;;;;;;;;;;5054433;28;20430;-50
2022/04/10 10:38:01;;;;;;;6.00;4.17;;;;;;;;;;5054226;28;20939;-52
2022/04/10 10:40:27;;;;;;;5.53;5.03;;;;;;;;;;5055533;28;20760;-51
2022/04/10 10:42:56;;;;;;;7.07;4.73;;;;;;;;;;5055630;28;20745;-50
2022/04/10 10:45:36;;;;;;;4.90;4.40;;;;;;;;;;5054180;28;20459;-53
2022/04/10 10:48:20;;;;;;;5.20;4.53;;;;;;;;;;5055554;28;20427;-51
2022/04/10 10:50:46;;;;;;;3.90;3.70;;;;;;;;;;5055348;28;20408;-52
2022/04/10 10:53:13;;;;;;;6.10;3.20;;;;;;;;;;5055262;28;20901;-50
2022/04/10 10:55:46;;;;;;;4.80;4.43;;;;;;;;;;5054221;28;20843;-50
2022/04/10 10:58:15;;;;;;;4.10;3.70;;;;;;;;;;5055170;28;20989;-51
2022/04/10 11:00:44;;;;;;;5.17;4.30;;;;;;;;;;5055115;28;20912;-56
2022/04/10 11:03:14;;;;;;;4.13;3.80;;;;;;;;;;5053827;28;20923;-53
2022/04/10 11:05:40;;;;;;;5.70;3.70;;;;;;;;;;5054951;28;20478;-52
2022/04/10 11:08:12;;;;;;;7.37;4.77;;;;;;;;;;5054963;28;20503;-52
2022/04/10 11:10:39;;;;;;;8.70;5.77;;;;;;;;;;5055017;28;20416;-51
2022/04/10 11:13:06;;;;;;;7.20;5.70;;;;;;;;;;5054958;28;20462;-52
2022/04/10 11:15:48;;;;;;;5.97;5.37;;;;;;;;;;5054906;28;20408;-49
2022/04/10 11:18:23;;;;;;;7.50;6.57;;;;;;;;;;5053592;28;20408;-57
2022/04/10 11:21:05;;;;;;;8.60;5.80;;;;;;;;;;5053388;28;20477;-58
2022/04/10 11:23:31;;;;;;;3.97;3.50;;;;;;;;;;5054575;28;20420;-51
2022/04/10 11:26:07;;;;;;;4.07;3.87;;;;;;;;;;5053303;28;20470;-53
2022/04/10 11:28:53;;;;;;;6.47;5.67;;;;;;;;;;5053569;28;20780;-52
2022/04/10 11:31:28;;;;;;;4.70;4.30;;;;;;;;;;5053452;28;20495;-53
2022/04/10 11:33:56;;;;;;;4.43;3.63;;;;;;;;;;5054530;28;20418;-53
2022/04/10 11:36:22;;;;;;;5.93;4.97;;;;;;;;;;5054380;28;20404;-53
2022/04/10 11:39:07;;;;;;;4.73;4.30;;;;;;;;;;5054672;28;20418;-56
2022/04/10 11:41:33;;;;;;;3.97;3.70;;;;;;;;;;5053092;28;20462;-51
2022/04/10 11:44:03;;;;;;;9.33;5.40;;;;;;;;;;5054390;28;20416;-51
2022/04/10 11:46:30;;;;;;;12.60;4.30;;;;;;;;;;5054224;28;20474;-55
2022/04/10 11:48:56;;;;;;;7.40;3.87;;;;;;;;;;5054566;28;20504;-55
2022/04/10 11:51:22;;;;;;;5.20;3.90;;;;;;;;;;5054155;28;20455;-53
2022/04/10 11:53:55;;;;;;;4.70;3.57;;;;;;;;;;5054344;28;20410;-52
2022/04/10 11:56:21;;;;;;;3.50;3.30;;;;;;;;;;5054080;28;20420;-52
2022/04/10 11:58:47;;;;;;;3.47;3.27;;;;;;;;;;5053007;28;20419;-53
2022/04/10 12:01:14;;;;;;;3.90;3.60;;;;;;;;;;5053930;28;20408;-54
2022/04/10 12:03:41;;;;;;;4.50;4.10;;;;;;;;;;5052578;28;20411;-52
2022/04/10 12:06:09;;;;;;;3.90;3.80;;;;;;;;;;5053880;28;20466;-52
2022/04/10 12:08:35;;;;;;;5.70;4.97;;;;;;;;;;5053862;28;20907;-54
2022/04/10 12:11:02;;;;;;;4.50;4.20;;;;;;;;;;5053920;28;20454;-51
2022/04/10 12:13:29;;;;;;;5.53;3.33;;;;;;;;;;5052422;28;20415;-51
2022/04/10 12:16:01;;;;;;;6.50;4.17;;;;;;;;;;5053790;28;20896;-53
2022/04/10 12:18:30;;;;;;;3.90;3.43;;;;;;;;;;5053729;28;20561;-49
2022/04/10 12:20:59;;;;;;;6.63;4.77;;;;;;;;;;5053444;28;20466;-50
2022/04/10 12:23:26;;;;;;;5.50;3.90;;;;;;;;;;5053676;28;20414;-53
2022/04/10 12:25:52;;;;;;;4.07;3.80;;;;;;;;;;5053427;28;20477;-53
2022/04/10 12:28:19;;;;;;;3.70;3.50;;;;;;;;;;5053623;28;20408;-52
2022/04/10 12:30:46;;;;;;;4.70;4.30;;;;;;;;;;5053625;28;20412;-54
2022/04/10 12:33:13;;;;;;;4.07;3.73;;;;;;;;;;5053596;28;20408;-51
2022/04/10 12:35:39;;;;;;;4.10;3.70;;;;;;;;;;5053168;28;20411;-51
2022/04/10 12:38:06;;;;;;;5.17;4.23;;;;;;;;;;5053271;28;20443;-55
2022/04/10 12:40:32;;;;;;;4.07;3.80;;;;;;;;;;5053310;28;20408;-50
2022/04/10 12:43:02;;;;;;;3.77;3.57;;;;;;;;;;5053136;28;20457;-52
2022/04/10 12:45:29;;;;;;;4.30;3.40;;;;;;;;;;5053103;28;20538;-53
2022/04/10 12:47:55;;;;;;;4.93;3.83;;;;;;;;;;5051753;28;20489;-51
2022/04/10 12:50:23;;;;;;;4.60;4.20;;;;;;;;;;5052943;28;20414;-50
2022/04/10 12:52:52;;;;;;;3.87;3.60;;;;;;;;;;5053237;28;20416;-52
2022/04/10 12:55:18;;;;;;;4.60;4.20;;;;;;;;;;5053051;28;20407;-55
2022/04/10 12:58:04;;;;;;;8.30;6.30;;;;;;;;;;5053058;28;20450;-55
2022/04/10 13:00:30;;;;;;;6.90;3.80;;;;;;;;;;5051512;28;20408;-50
2022/04/10 13:02:56;;;;;;;5.47;4.97;;;;;;;;;;5052752;28;20760;-61
2022/04/10 13:05:25;;;;;;;6.10;5.00;;;;;;;;;;5051653;28;20478;-55
2022/04/10 13:07:55;;;;;;;5.67;4.70;;;;;;;;;;5052650;28;20427;-51
2022/04/10 13:10:21;;;;;;;4.33;3.30;;;;;;;;;;5052778;28;20761;-56
2022/04/10 13:12:48;;;;;;;3.57;3.47;;;;;;;;;;5052697;28;20441;-54
2022/04/10 13:15:28;;;;;;;4.50;4.20;;;;;;;;;;5052625;28;20412;-56
2022/04/10 13:17:56;;;;;;;4.50;4.10;;;;;;;;;;5052558;28;20904;-50
2022/04/10 13:20:24;;;;;;;7.57;4.20;;;;;;;;;;5052094;28;21098;-62
2022/04/10 13:22:50;;;;;;;4.40;3.97;;;;;;;;;;5052709;28;20514;-52
2022/04/10 13:25:16;;;;;;;4.33;4.10;;;;;;;;;;5052633;28;20490;-54
2022/04/10 13:27:42;;;;;;;4.50;4.10;;;;;;;;;;5052447;28;20485;-52
2022/04/10 13:30:09;;;;;;;4.53;4.23;;;;;;;;;;5052540;28;20414;-57
2022/04/10 13:32:35;;;;;;;4.47;4.13;;;;;;;;;;5052402;28;20502;-60
2022/04/10 13:35:01;;;;;;;3.80;3.50;;;;;;;;;;5052465;28;20916;-52
2022/04/10 13:37:27;;;;;;;4.43;4.13;;;;;;;;;;5052500;28;20450;-54
2022/04/10 13:39:53;;;;;;;4.40;4.00;;;;;;;;;;5051100;28;20420;-52
2022/04/10 13:42:20;;;;;;;3.93;3.73;;;;;;;;;;5052583;28;20419;-53
2022/04/10 13:44:46;;;;;;;4.10;3.77;;;;;;;;;;5052460;28;20745;-51
2022/04/10 13:47:13;;;;;;;5.33;4.30;;;;;;;;;;5052408;28;20471;-53
2022/04/10 13:49:39;;;;;;;4.30;4.00;;;;;;;;;;5052342;28;20935;-51
2022/04/10 13:52:05;;;;;;;3.20;3.00;;;;;;;;;;5052391;28;20501;-51
2022/04/10 13:54:31;;;;;;;3.23;3.13;;;;;;;;;;5052293;28;20418;-54
2022/04/10 13:56:57;;;;;;;3.23;3.13;;;;;;;;;;5051048;28;20523;-50
2022/04/10 13:59:23;;;;;;;3.47;3.27;;;;;;;;;;5052353;28;20404;-53
2022/04/10 14:01:49;;;;;;;4.20;3.90;;;;;;;;;;5052378;28;20404;-52
2022/04/10 14:04:16;;;;;;;3.30;3.20;;;;;;;;;;5052331;28;20403;-56
2022/04/10 14:06:42;;;;;;;7.33;3.87;;;;;;;;;;5052111;28;20463;-52
2022/04/10 14:09:08;;;;;;;4.93;4.00;;;;;;;;;;5052208;28;20400;-52
2022/04/10 14:11:34;;;;;;;3.73;3.63;;;;;;;;;;5052115;28;20427;-53
2022/04/10 14:14:01;;;;;;;3.50;3.40;;;;;;;;;;5052132;28;20419;-52
2022/04/10 14:16:27;;;;;;;4.30;4.00;;;;;;;;;;5052115;28;20420;-52
2022/04/10 14:18:53;;;;;;;4.00;3.73;;;;;;;;;;5052066;28;20479;-52
2022/04/10 14:21:19;;;;;;;3.90;3.70;;;;;;;;;;5052107;28;20446;-51
2022/04/10 14:23:45;;;;;;;3.10;3.00;;;;;;;;;;5052252;28;20904;-55
2022/04/10 14:26:12;;;;;;;5.43;3.87;;;;;;;;;;5052000;28;20508;-55
2022/04/10 14:28:39;;;;;;;3.60;3.40;;;;;;;;;;5050587;28;20412;-54
2022/04/10 14:31:05;;;;;;;3.60;3.50;;;;;;;;;;5052033;28;20427;-51
2022/04/10 14:33:32;;;;;;;4.23;3.93;;;;;;;;;;5055740;28;20466;-52
2022/04/10 14:35:58;;;;;;;4.20;3.93;;;;;;;;;;5055490;28;20919;-51
2022/04/10 14:38:24;;;;;;;4.67;4.40;;;;;;;;;;5054320;28;20426;-51
2022/04/10 14:40:50;;;;;;;4.37;4.00;;;;;;;;;;5059259;28;20418;-51
2022/04/10 14:43:16;;;;;;;4.90;4.60;;;;;;;;;;5063213;28;20414;-58
2022/04/10 14:45:42;;;;;;;4.60;4.30;;;;;;;;;;5065391;28;20458;-61
2022/04/10 14:48:12;;;;;;;4.03;3.83;;;;;;;;;;5062420;28;20446;-52